Current Weather

Pemba

Pemba, Mozambique (FQPB)

Report from: Wednesday, May 29, 2024 11:00 AM CAT
Current time: Wednesday, May 29, 2024 11:25 AM CAT

Nearby weather – Weather history – Daily summaries
Weather forecast

Temperature30.0°C (86.0°F)
Heat index34.2°C (93.6°F)
Dew point23.0°C (73.4°F)
Winds 15 kts (7.7 m/s, 17.3 mph) South (180°)
Visibility6.2 mi. (10 km)
Clouds Few clouds 2,000 ft. (610 m)
Altimeter30.06 in.Hg (1018 mB)
Relative humidity66 %
Density altitude1,937 ft. (590 m)
Flight conditions Visual Meteorological Conditions
Raw dataFQPB 290900Z 18015KT 9999 FEW020 30/23 Q1018
An error has occurred. This application may no longer respond until reloaded. Reload 🗙